Time,TemperatureF,DewpointF,PressureIn,WindDirection,WindDirectionDegrees,WindSpeedMPH,WindSpeedGustMPH,Humidity,HourlyPrecipIn,Conditions,Clouds,dailyrainin,SoftwareType,DateUTC
2013-10-21 00:14:00,55.7,50.0,29.87,SSW,194,0.0,2.0,80,0.00,,,0.00,weatherlink.com 1.10,2013-10-21 05:14:00,
2013-10-21 00:29:00,55.3,50.0,29.86,SSW,194,0.0,0.0,81,0.00,,,0.00,weatherlink.com 1.10,2013-10-21 05:29:00,
2013-10-21 00:44:00,55.0,50.0,29.86,SSW,194,0.0,0.0,83,0.00,,,0.00,weatherlink.com 1.10,2013-10-21 05:44:00,
2013-10-21 00:59:00,54.9,50.0,29.86,SSW,194,0.0,0.0,82,0.00,,,0.00,weatherlink.com 1.10,2013-10-21 05:59:00,
2013-10-21 01:14:00,55.7,50.0,29.86,SSW,194,0.0,1.0,80,0.00,,,0.00,weatherlink.com 1.10,2013-10-21 06:14:00,
2013-10-21 01:29:00,55.8,50.0,29.86,SSW,194,0.0,0.0,81,0.00,,,0.00,weatherlink.com 1.10,2013-10-21 06:29:00,
2013-10-21 01:44:00,56.5,50.0,29.86,SSW,194,0.0,0.0,79,0.00,,,0.00,weatherlink.com 1.10,2013-10-21 06:44:00,
2013-10-21 01:59:00,56.7,51.0,29.85,SSW,194,0.0,0.0,82,0.00,,,0.00,weatherlink.com 1.10,2013-10-21 06:59:00,
2013-10-21 02:14:00,56.8,51.0,29.86,SSW,194,0.0,1.0,81,0.00,,,0.00,weatherlink.com 1.10,2013-10-21 07:14:00,
2013-10-21 02:29:00,56.7,51.0,29.85,SSW,194,0.0,0.0,82,0.00,,,0.00,weatherlink.com 1.10,2013-10-21 07:29:00,
2013-10-21 02:44:00,56.4,52.0,29.85,SSW,194,0.0,0.0,84,0.00,,,0.00,weatherlink.com 1.10,2013-10-21 07:44:00,
2013-10-21 02:59:00,56.1,52.0,29.86,SSW,194,0.0,1.0,85,0.00,,,0.00,weatherlink.com 1.10,2013-10-21 07:59:00,
2013-10-21 03:14:00,56.0,52.0,29.86,SSW,194,0.0,1.0,87,0.00,,,0.00,weatherlink.com 1.10,2013-10-21 08:14:00,
2013-10-21 03:29:00,56.1,52.0,29.85,SSW,194,0.0,3.0,87,0.00,,,0.00,weatherlink.com 1.10,2013-10-21 08:29:00,
2013-10-21 03:44:00,58.4,53.0,29.85,SSW,194,0.0,4.0,82,0.00,,,0.00,weatherlink.com 1.10,2013-10-21 08:44:00,
2013-10-21 03:59:00,59.0,54.0,29.84,SSW,194,0.0,1.0,82,0.00,,,0.00,weatherlink.com 1.10,2013-10-21 08:59:00,
2013-10-21 04:14:00,58.7,54.0,29.84,SSW,194,0.0,0.0,83,0.00,,,0.00,weatherlink.com 1.10,2013-10-21 09:14:00,
2013-10-21 04:29:00,57.4,53.0,29.85,SSW,194,0.0,3.0,84,0.00,,,0.00,weatherlink.com 1.10,2013-10-21 09:29:00,
2013-10-21 04:44:00,56.9,53.0,29.84,SSW,194,0.0,0.0,86,0.00,,,0.00,weatherlink.com 1.10,2013-10-21 09:44:00,
2013-10-21 04:59:00,56.9,53.0,29.85,SSW,194,0.0,0.0,87,0.00,,,0.00,weatherlink.com 1.10,2013-10-21 09:59:00,
2013-10-21 05:14:00,57.1,53.0,29.85,SSW,194,0.0,2.0,87,0.00,,,0.00,weatherlink.com 1.10,2013-10-21 10:14:00,
2013-10-21 05:29:00,57.4,54.0,29.85,SSW,194,0.0,1.0,88,0.00,,,0.00,weatherlink.com 1.10,2013-10-21 10:29:00,
2013-10-21 05:44:00,57.8,54.0,29.85,SSW,194,0.0,1.0,88,0.00,,,0.00,weatherlink.com 1.10,2013-10-21 10:44:00,
2013-10-21 05:59:00,58.2,55.0,29.85,SSW,194,0.0,0.0,89,0.00,,,0.00,weatherlink.com 1.10,2013-10-21 10:59:00,
2013-10-21 06:14:00,59.2,56.0,29.85,SSW,194,0.0,0.0,90,0.00,,,0.00,weatherlink.com 1.10,2013-10-21 11:14:00,
2013-10-21 06:29:00,59.9,57.0,29.85,SSW,194,0.0,0.0,90,0.00,,,0.00,weatherlink.com 1.10,2013-10-21 11:29:00,
2013-10-21 06:44:00,59.9,56.0,29.85,SSW,194,0.0,0.0,88,0.00,,,0.00,weatherlink.com 1.10,2013-10-21 11:44:00,
2013-10-21 06:59:00,59.7,57.0,29.85,SSW,194,0.0,1.0,89,0.00,,,0.00,weatherlink.com 1.10,2013-10-21 11:59:00,
2013-10-21 07:14:00,59.8,57.0,29.85,SSW,194,0.0,1.0,91,0.00,,,0.00,weatherlink.com 1.10,2013-10-21 12:14:00,
2013-10-21 07:29:00,58.2,55.0,29.86,SSW,194,1.0,4.0,88,0.00,,,0.00,weatherlink.com 1.10,2013-10-21 12:29:00,
2013-10-21 07:44:00,57.6,54.0,29.86,SSW,194,0.0,1.0,89,0.00,,,0.00,weatherlink.com 1.10,2013-10-21 12:44:00,
2013-10-21 07:59:00,57.9,55.0,29.85,SSW,194,0.0,2.0,90,0.00,,,0.00,weatherlink.com 1.10,2013-10-21 12:59:00,
2013-10-21 08:14:00,58.5,56.0,29.86,SSW,194,0.0,1.0,91,0.00,,,0.00,weatherlink.com 1.10,2013-10-21 13:14:00,
2013-10-21 08:29:00,59.1,57.0,29.87,SSW,194,0.0,1.0,91,0.00,,,0.00,weatherlink.com 1.10,2013-10-21 13:29:00,
2013-10-21 08:44:00,59.8,57.0,29.87,SSW,194,0.0,1.0,91,0.00,,,0.00,weatherlink.com 1.10,2013-10-21 13:44:00,
2013-10-21 08:59:00,60.5,58.0,29.87,SSW,194,0.0,0.0,91,0.00,,,0.00,weatherlink.com 1.10,2013-10-21 13:59:00,
2013-10-21 09:14:00,61.4,59.0,29.87,SSW,194,0.0,0.0,91,0.00,,,0.00,weatherlink.com 1.10,2013-10-21 14:14:00,
2013-10-21 09:29:00,62.9,60.0,29.88,SSW,194,0.0,0.0,91,0.00,,,0.00,weatherlink.com 1.10,2013-10-21 14:29:00,
2013-10-21 09:44:00,64.6,61.0,29.88,SSW,194,0.0,1.0,89,0.00,,,0.00,weatherlink.com 1.10,2013-10-21 14:44:00,
2013-10-21 09:59:00,67.0,63.0,29.88,SSW,194,0.0,3.0,86,0.00,,,0.00,weatherlink.com 1.10,2013-10-21 14:59:00,
2013-10-21 10:14:00,69.6,64.0,29.89,SSW,194,0.0,5.0,82,0.00,,,0.00,weatherlink.com 1.10,2013-10-21 15:14:00,
2013-10-21 10:29:00,70.5,64.0,29.90,SSW,194,1.0,4.0,80,0.00,,,0.00,weatherlink.com 1.10,2013-10-21 15:29:00,
2013-10-21 10:44:00,69.3,63.0,29.91,NNE,20,4.0,9.0,79,0.00,,,0.00,weatherlink.com 1.10,2013-10-21 15:44:00,
2013-10-21 10:59:00,68.6,63.0,29.91,NNE,20,4.0,5.0,82,0.00,,,0.00,weatherlink.com 1.10,2013-10-21 15:59:00,
2013-10-21 11:15:00,68.3,62.0,29.91,NE,38,3.0,9.0,81,0.00,,,0.00,weatherlink.com 1.10,2013-10-21 16:15:00,
2013-10-21 11:30:00,69.4,64.0,29.91,NNE,26,5.0,7.0,82,0.00,,,0.00,weatherlink.com 1.10,2013-10-21 16:30:00,
2013-10-21 11:45:00,71.2,64.0,29.91,NNE,28,1.0,6.0,78,0.00,,,0.00,weatherlink.com 1.10,2013-10-21 16:45:00,
2013-10-21 12:00:00,71.8,64.0,29.91,NNE,25,4.0,6.0,76,0.00,,,0.00,weatherlink.com 1.10,2013-10-21 17:00:00,
2013-10-21 12:15:00,72.6,63.0,29.91,NW,324,0.0,4.0,73,0.00,,,0.00,weatherlink.com 1.10,2013-10-21 17:15:00,
2013-10-21 12:30:00,73.9,64.0,29.90,NW,325,1.0,4.0,71,0.00,,,0.00,weatherlink.com 1.10,2013-10-21 17:30:00,
2013-10-21 12:44:00,73.9,64.0,29.90,North,355,6.0,6.0,71,0.00,,,0.00,weatherlink.com 1.10,2013-10-21 17:44:00,
2013-10-21 13:00:00,71.9,64.0,29.90,NE,34,4.0,6.0,75,0.00,,,0.00,weatherlink.com 1.10,2013-10-21 18:00:00,
2013-10-21 13:15:00,70.7,63.0,29.90,NE,42,2.0,8.0,77,0.00,,,0.00,weatherlink.com 1.10,2013-10-21 18:15:00,
2013-10-21 13:30:00,71.2,63.0,29.90,NE,43,1.0,7.0,75,0.00,,,0.00,weatherlink.com 1.10,2013-10-21 18:30:00,
2013-10-21 13:45:00,71.9,62.0,29.89,NE,43,7.0,9.0,72,0.00,,,0.00,weatherlink.com 1.10,2013-10-21 18:45:00,
2013-10-21 14:00:00,72.6,62.0,29.88,North,360,2.0,9.0,69,0.00,,,0.00,weatherlink.com 1.10,2013-10-21 19:00:00,
2013-10-21 14:15:00,73.7,61.0,29.88,North,355,2.0,8.0,65,0.00,,,0.00,weatherlink.com 1.10,2013-10-21 19:15:00,
2013-10-21 14:30:00,73.3,63.0,29.88,North,355,2.0,9.0,69,0.00,,,0.00,weatherlink.com 1.10,2013-10-21 19:30:00,
2013-10-21 14:45:00,73.7,62.0,29.88,NW,325,3.0,6.0,66,0.00,,,0.00,weatherlink.com 1.10,2013-10-21 19:45:00,
2013-10-21 15:00:00,73.9,61.0,29.87,North,350,2.0,8.0,65,0.00,,,0.00,weatherlink.com 1.10,2013-10-21 20:00:00,
2013-10-21 15:15:00,73.7,62.0,29.87,North,5,8.0,13.0,66,0.00,,,0.00,weatherlink.com 1.10,2013-10-21 20:15:00,
2013-10-21 15:30:00,71.5,61.0,29.87,North,5,1.0,9.0,69,0.00,,,0.00,weatherlink.com 1.10,2013-10-21 20:30:00,
2013-10-21 15:45:00,72.0,61.0,29.87,NNW,339,2.0,11.0,68,0.00,,,0.00,weatherlink.com 1.10,2013-10-21 20:45:00,
2013-10-21 16:00:00,71.9,60.0,29.88,North,360,5.0,10.0,66,0.00,,,0.00,weatherlink.com 1.10,2013-10-21 21:00:00,
2013-10-21 16:15:00,71.8,60.0,29.88,North,360,2.0,9.0,67,0.00,,,0.00,weatherlink.com 1.10,2013-10-21 21:15:00,
2013-10-21 16:30:00,72.2,60.0,29.89,North,360,3.0,8.0,66,0.00,,,0.00,weatherlink.com 1.10,2013-10-21 21:30:00,
2013-10-21 16:45:00,72.1,60.0,29.88,North,355,2.0,9.0,65,0.00,,,0.00,weatherlink.com 1.10,2013-10-21 21:45:00,
2013-10-21 17:00:00,72.2,59.0,29.89,North,5,2.0,13.0,64,0.00,,,0.00,weatherlink.com 1.10,2013-10-21 22:00:00,
2013-10-21 17:15:00,71.2,58.0,29.89,NNW,329,6.0,12.0,63,0.00,,,0.00,weatherlink.com 1.10,2013-10-21 22:15:00,
2013-10-21 17:30:00,70.4,58.0,29.89,North,5,3.0,9.0,64,0.00,,,0.00,weatherlink.com 1.10,2013-10-21 22:30:00,
2013-10-21 17:45:00,69.8,58.0,29.89,North,5,5.0,11.0,66,0.00,,,0.00,weatherlink.com 1.10,2013-10-21 22:45:00,
2013-10-21 18:00:00,69.6,58.0,29.90,North,5,3.0,10.0,66,0.00,,,0.00,weatherlink.com 1.10,2013-10-21 23:00:00,
2013-10-21 18:15:00,69.2,57.0,29.90,North,355,6.0,7.0,66,0.00,,,0.00,weatherlink.com 1.10,2013-10-21 23:15:00,
2013-10-21 18:29:00,68.5,57.0,29.91,North,355,1.0,5.0,67,0.00,,,0.00,weatherlink.com 1.10,2013-10-21 23:29:00,
2013-10-21 18:45:00,67.5,56.0,29.91,North,355,4.0,7.0,67,0.00,,,0.00,weatherlink.com 1.10,2013-10-21 23:45:00,
2013-10-21 19:00:00,66.9,56.0,29.92,North,360,1.0,7.0,69,0.00,,,0.00,weatherlink.com 1.10,2013-10-22 00:00:00,
2013-10-21 19:15:00,66.2,56.0,29.93,NE,34,3.0,11.0,69,0.00,,,0.00,weatherlink.com 1.10,2013-10-22 00:15:00,
2013-10-21 19:30:00,65.2,56.0,29.94,North,355,3.0,11.0,71,0.00,,,0.00,weatherlink.com 1.10,2013-10-22 00:30:00,
2013-10-21 19:45:00,64.1,55.0,29.95,North,5,6.0,10.0,72,0.00,,,0.00,weatherlink.com 1.10,2013-10-22 00:45:00,
2013-10-21 20:00:00,63.2,54.0,29.95,North,11,6.0,12.0,73,0.00,,,0.00,weatherlink.com 1.10,2013-10-22 01:00:00,
2013-10-21 20:15:00,62.3,54.0,29.96,North,360,4.0,8.0,74,0.00,,,0.00,weatherlink.com 1.10,2013-10-22 01:15:00,
2013-10-21 20:30:00,61.6,54.0,29.97,North,360,3.0,8.0,75,0.00,,,0.00,weatherlink.com 1.10,2013-10-22 01:30:00,
2013-10-21 20:44:00,61.0,53.0,29.98,North,355,4.0,6.0,76,0.00,,,0.00,weatherlink.com 1.10,2013-10-22 01:44:00,
2013-10-21 21:00:00,60.4,53.0,29.98,North,5,2.0,7.0,77,0.00,,,0.00,weatherlink.com 1.10,2013-10-22 02:00:00,
2013-10-21 21:15:00,59.8,53.0,29.99,North,5,0.0,3.0,78,0.00,,,0.00,weatherlink.com 1.10,2013-10-22 02:15:00,
2013-10-21 21:30:00,59.0,53.0,30.00,North,5,2.0,3.0,80,0.00,,,0.00,weatherlink.com 1.10,2013-10-22 02:30:00,
2013-10-21 21:45:00,58.2,52.0,30.00,North,5,3.0,4.0,81,0.00,,,0.00,weatherlink.com 1.10,2013-10-22 02:45:00,
2013-10-21 22:00:00,58.0,53.0,30.01,North,5,2.0,6.0,82,0.00,,,0.00,weatherlink.com 1.10,2013-10-22 03:00:00,
2013-10-21 22:15:00,57.7,52.0,30.02,North,5,0.0,3.0,82,0.00,,,0.00,weatherlink.com 1.10,2013-10-22 03:15:00,
2013-10-21 22:30:00,57.5,53.0,30.02,North,5,0.0,1.0,84,0.00,,,0.00,weatherlink.com 1.10,2013-10-22 03:30:00,
2013-10-21 22:45:00,57.8,53.0,30.03,North,5,0.0,1.0,83,0.00,,,0.00,weatherlink.com 1.10,2013-10-22 03:45:00,
2013-10-21 23:00:00,58.3,53.0,30.03,North,5,3.0,6.0,82,0.00,,,0.00,weatherlink.com 1.10,2013-10-22 04:00:00,
2013-10-21 23:15:00,59.3,53.0,30.04,NNE,19,1.0,8.0,80,0.00,,,0.00,weatherlink.com 1.10,2013-10-22 04:15:00,
2013-10-21 23:30:00,59.7,53.0,30.04,NE,51,3.0,10.0,78,0.00,,,0.00,weatherlink.com 1.10,2013-10-22 04:30:00,
2013-10-21 23:45:00,59.8,53.0,30.05,NE,36,2.0,8.0,78,0.00,,,0.00,weatherlink.com 1.10,2013-10-22 04:45:00,